KFYV/FYV METAR and TAF weather

Enter ICAO airport designator
Station Type Date Time Source
KFYV METAR 2024/02/26 16:53 UTC NOAA

KFYV 261653Z 20013G23KT 10SM CLR 23/10 A2977 RMK AO2 SLP072 T02330100


Station Type Date Time Source
KFYV Decoded METAR 2024/02/26 16:53 UTC NOAA

FAYETTEVILLE DRAKE FIELD, AR, United States (KFYV) 36-00N 94-10W 379M
Feb 26, 2024 - 11:53 AM EST / 2024.02.26 1653 UTC
Wind: from the SSW (200 degrees) at 15 MPH (13 KT) gusting to 26 MPH (23 KT):0
Visibility: 10 mile(s):0
Sky conditions: clear
Temperature: 73.9 F (23.3 C)
Dew Point: 50.0 F (10.0 C)
Relative Humidity: 42%
Pressure (altimeter): 29.77 in. Hg (1008 hPa)
ob: KFYV 261653Z 20013G23KT 10SM CLR 23/10 A2977 RMK AO2 SLP072 T02330100
cycle: 17

Station Type Date Time Source
KFYV TAF 2024/02/26 12:27 UTC NOAA